createdAt,value
2017-11-29T00:02:47.602Z,4.33
2017-11-29T00:05:52.739Z,3.70
2017-11-29T00:08:59.760Z,4.57
2017-11-29T00:12:07.196Z,3.90
2017-11-29T00:15:14.953Z,3.20
2017-11-29T00:18:21.885Z,3.70
2017-11-29T00:21:27.651Z,3.07
2017-11-29T00:24:33.862Z,3.20
2017-11-29T00:27:46.764Z,3.33
2017-11-29T00:31:05.207Z,3.07
2017-11-29T00:34:10.940Z,3.47
2017-11-29T00:37:16.484Z,4.30
2017-11-29T00:40:21.909Z,3.40
2017-11-29T00:43:28.317Z,6.30
2017-11-29T00:46:39.621Z,3.87
2017-11-29T00:49:50.346Z,3.40
2017-11-29T00:52:57.076Z,3.30
2017-11-29T00:56:03.200Z,3.80
2017-11-29T00:59:15.797Z,3.73
2017-11-29T01:02:27.825Z,3.70
2017-11-29T01:05:32.833Z,4.00
2017-11-29T01:08:43.988Z,3.83
2017-11-29T01:12:02.661Z,3.60
2017-11-29T01:15:08.054Z,3.83
2017-11-29T01:18:13.698Z,3.83
2017-11-29T01:21:20.060Z,3.63
2017-11-29T01:24:38.196Z,3.80
2017-11-29T01:27:49.524Z,4.00
2017-11-29T01:30:55.599Z,4.10
2017-11-29T01:34:01.477Z,3.30
2017-11-29T01:37:07.657Z,3.67
2017-11-29T01:40:18.469Z,4.53
2017-11-29T01:43:27.706Z,4.57
2017-11-29T01:46:33.534Z,3.47
2017-11-29T01:49:38.360Z,3.80
2017-11-29T01:52:43.690Z,4.10
2017-11-29T01:55:48.830Z,4.33
2017-11-29T01:59:06.603Z,3.93
2017-11-29T02:02:11.620Z,3.70
2017-11-29T02:05:24.453Z,3.73
2017-11-29T02:08:29.628Z,5.93
2017-11-29T02:11:35.126Z,4.60
2017-11-29T02:14:46.432Z,4.77
2017-11-29T02:17:52.079Z,5.70
2017-11-29T02:20:57.613Z,5.30
2017-11-29T02:24:03.417Z,5.10
2017-11-29T02:27:08.831Z,5.73
2017-11-29T02:30:13.909Z,5.13
2017-11-29T02:33:19.801Z,5.63
2017-11-29T02:36:24.718Z,6.27
2017-11-29T02:39:36.272Z,5.20
2017-11-29T02:42:56.477Z,6.37
2017-11-29T02:46:02.998Z,5.77
2017-11-29T02:49:08.713Z,5.63
2017-11-29T02:52:18.061Z,7.10
2017-11-29T02:55:24.456Z,5.70
2017-11-29T02:58:32.678Z,5.00
2017-11-29T03:01:38.432Z,6.30
2017-11-29T03:04:51.148Z,6.30
2017-11-29T03:07:56.073Z,6.50
2017-11-29T03:11:01.274Z,6.00
2017-11-29T03:14:06.985Z,7.53
2017-11-29T03:17:11.905Z,6.73
2017-11-29T03:20:17.873Z,7.47
2017-11-29T03:23:22.941Z,7.20
2017-11-29T03:26:28.910Z,8.97
2017-11-29T03:29:40.022Z,9.03
2017-11-29T03:32:48.455Z,11.00
2017-11-29T03:35:53.277Z,9.00
2017-11-29T03:38:58.057Z,11.00
2017-11-29T03:42:04.720Z,9.40
2017-11-29T03:45:17.174Z,8.87
2017-11-29T03:48:22.938Z,9.20
2017-11-29T03:51:40.716Z,10.70
2017-11-29T03:54:45.616Z,8.97
2017-11-29T03:57:51.549Z,11.20
2017-11-29T04:00:56.478Z,10.10
2017-11-29T04:04:01.390Z,9.70
2017-11-29T04:07:06.510Z,13.80
2017-11-29T04:10:14.695Z,12.27
2017-11-29T04:13:21.520Z,11.90
2017-11-29T04:16:27.245Z,11.27
2017-11-29T04:19:40.471Z,10.63
2017-11-29T04:22:46.396Z,13.40
2017-11-29T04:25:54.745Z,12.10
2017-11-29T04:28:59.402Z,11.20
2017-11-29T04:32:06.074Z,11.80
2017-11-29T04:35:29.914Z,12.67
2017-11-29T04:38:43.805Z,11.17
2017-11-29T04:41:49.136Z,10.90
2017-11-29T04:44:54.542Z,13.60
2017-11-29T04:48:00.169Z,9.30
2017-11-29T04:51:06.360Z,10.13
2017-11-29T04:54:12.618Z,11.33
2017-11-29T04:57:18.190Z,10.27
2017-11-29T05:00:23.352Z,11.20
2017-11-29T05:03:28.413Z,12.53
2017-11-29T05:06:33.657Z,12.10
2017-11-29T05:09:54.618Z,11.57
2017-11-29T05:13:01.303Z,12.13
2017-11-29T05:16:07.226Z,12.30
2017-11-29T05:19:12.100Z,14.67
2017-11-29T05:22:17.797Z,12.20
2017-11-29T05:25:22.550Z,13.73
2017-11-29T05:28:27.487Z,14.00
2017-11-29T05:31:37.114Z,12.43
2017-11-29T05:34:48.262Z,11.70
2017-11-29T05:37:53.773Z,13.23
2017-11-29T05:41:06.121Z,14.80
2017-11-29T05:44:13.442Z,13.10
2017-11-29T05:47:19.052Z,17.30
2017-11-29T05:50:24.817Z,16.80
2017-11-29T05:53:29.740Z,19.73
2017-11-29T05:56:34.825Z,14.63
2017-11-29T05:59:39.771Z,18.47
2017-11-29T06:02:44.908Z,16.50
2017-11-29T06:05:54.268Z,15.63
2017-11-29T06:09:00.906Z,15.03
2017-11-29T06:12:05.893Z,12.77
2017-11-29T06:15:10.921Z,9.80
2017-11-29T06:18:17.441Z,10.63
2017-11-29T06:21:24.450Z,9.63
2017-11-29T06:24:29.706Z,9.20
2017-11-29T06:27:35.245Z,9.13
2017-11-29T06:30:40.296Z,9.17
2017-11-29T06:33:46.311Z,10.57
2017-11-29T06:36:51.934Z,9.00
2017-11-29T06:39:57.611Z,8.83
2017-11-29T06:43:04.007Z,8.90
2017-11-29T06:46:12.630Z,9.63
2017-11-29T06:49:21.401Z,8.47
2017-11-29T06:52:41.405Z,9.27
2017-11-29T06:55:46.104Z,9.27
2017-11-29T06:58:51.804Z,10.57
2017-11-29T07:01:57.293Z,10.83
2017-11-29T07:05:03.029Z,9.47
2017-11-29T07:08:08.313Z,9.33
2017-11-29T07:11:20.914Z,5.53
2017-11-29T07:14:26.800Z,6.80
2017-11-29T07:17:32.829Z,7.90
2017-11-29T07:20:37.694Z,7.77
2017-11-29T07:23:43.645Z,8.07
2017-11-29T07:26:48.397Z,7.70
2017-11-29T07:29:54.720Z,8.10
2017-11-29T07:33:00.446Z,8.20
2017-11-29T07:36:07.589Z,6.87
2017-11-29T07:39:12.536Z,7.17
2017-11-29T07:42:18.072Z,7.03
2017-11-29T07:45:23.650Z,8.53
2017-11-29T07:48:29.160Z,9.20
2017-11-29T07:51:34.976Z,10.40
2017-11-29T07:54:41.556Z,10.40
2017-11-29T07:57:46.888Z,10.00
2017-11-29T08:00:52.262Z,10.77
2017-11-29T08:03:58.389Z,11.17
2017-11-29T08:07:03.359Z,13.57
2017-11-29T08:10:17.714Z,13.10
2017-11-29T08:13:25.641Z,13.80
2017-11-29T08:16:31.177Z,12.20
2017-11-29T08:19:46.015Z,12.00
2017-11-29T08:23:09.776Z,11.73
2017-11-29T08:26:24.108Z,13.73
2017-11-29T08:29:29.325Z,14.07
2017-11-29T08:32:34.609Z,12.63
2017-11-29T08:35:40.291Z,14.70
2017-11-29T08:38:46.761Z,15.23
2017-11-29T08:41:58.570Z,14.97
2017-11-29T08:45:10.054Z,15.57
2017-11-29T08:48:15.347Z,17.20
2017-11-29T08:51:26.096Z,18.50
2017-11-29T08:54:31.659Z,14.57
2017-11-29T08:57:39.202Z,13.90
2017-11-29T09:00:54.606Z,16.10
2017-11-29T09:03:59.793Z,15.43
2017-11-29T09:07:08.705Z,15.10
2017-11-29T09:10:13.738Z,15.27
2017-11-29T09:13:24.846Z,14.57
2017-11-29T09:16:30.269Z,15.60
2017-11-29T09:19:35.993Z,15.83
2017-11-29T09:22:41.331Z,13.47
2017-11-29T09:25:49.458Z,12.73
2017-11-29T09:29:00.935Z,14.60
2017-11-29T09:32:06.105Z,12.13
2017-11-29T09:35:12.080Z,15.00
2017-11-29T09:38:17.429Z,14.97
2017-11-29T09:41:23.320Z,13.30
2017-11-29T09:44:28.850Z,13.83
2017-11-29T09:47:36.553Z,12.10
2017-11-29T09:50:45.056Z,12.93
2017-11-29T09:53:56.189Z,10.93
2017-11-29T09:57:01.656Z,13.03
2017-11-29T10:00:08.012Z,12.47
2017-11-29T10:03:13.437Z,10.50
2017-11-29T10:06:18.227Z,9.37
2017-11-29T10:09:23.569Z,12.37
2017-11-29T10:12:28.987Z,11.70
2017-11-29T10:15:38.088Z,10.90
2017-11-29T10:18:43.101Z,10.90
2017-11-29T10:21:48.685Z,14.00
2017-11-29T10:24:53.609Z,12.40
2017-11-29T10:27:59.375Z,14.30
2017-11-29T10:31:17.244Z,7.50
2017-11-29T10:34:23.677Z,8.17
2017-11-29T10:37:28.761Z,8.50
2017-11-29T10:40:34.685Z,5.30
2017-11-29T10:43:39.491Z,3.60
2017-11-29T10:46:46.033Z,3.57
2017-11-29T10:49:54.022Z,4.80
2017-11-29T10:53:05.140Z,6.50
2017-11-29T10:56:10.209Z,6.10
2017-11-29T10:59:15.736Z,7.20
2017-11-29T11:02:30.285Z,5.70
2017-11-29T11:05:35.280Z,4.93
2017-11-29T11:08:41.553Z,6.03
2017-11-29T11:11:59.325Z,6.43
2017-11-29T11:15:04.921Z,6.03
2017-11-29T11:18:11.452Z,7.13
2017-11-29T11:21:16.654Z,6.57
2017-11-29T11:24:23.814Z,5.50
2017-11-29T11:27:28.954Z,3.90
2017-11-29T11:30:34.538Z,4.53
2017-11-29T11:33:39.421Z,4.90
2017-11-29T11:36:47.813Z,5.00
2017-11-29T11:39:52.913Z,3.40
2017-11-29T11:43:12.797Z,3.50
2017-11-29T11:46:18.305Z,2.33
2017-11-29T11:49:24.154Z,2.67
2017-11-29T11:52:29.058Z,2.60
2017-11-29T11:55:34.191Z,2.87
2017-11-29T11:58:40.236Z,5.23
2017-11-29T12:01:45.280Z,2.90
2017-11-29T12:04:50.464Z,3.03
2017-11-29T12:07:56.768Z,2.40
2017-11-29T12:11:01.746Z,3.27
2017-11-29T12:14:07.321Z,4.10
2017-11-29T12:17:12.541Z,3.00
2017-11-29T12:20:18.077Z,2.70
2017-11-29T12:23:22.905Z,6.13
2017-11-29T12:26:31.913Z,2.63
2017-11-29T12:29:36.941Z,4.80
2017-11-29T12:32:46.733Z,2.50
2017-11-29T12:35:53.248Z,2.67
2017-11-29T12:38:58.369Z,2.90
2017-11-29T12:42:13.194Z,5.47
2017-11-29T12:45:18.855Z,3.63
2017-11-29T12:48:36.240Z,4.30
2017-11-29T12:51:42.157Z,2.90
2017-11-29T12:54:47.464Z,4.60
2017-11-29T12:57:52.772Z,5.70
2017-11-29T13:00:58.482Z,3.60
2017-11-29T13:04:03.606Z,8.57
2017-11-29T13:07:23.157Z,2.60
2017-11-29T13:10:28.606Z,3.13
2017-11-29T13:13:34.812Z,4.13
2017-11-29T13:16:40.224Z,3.87
2017-11-29T13:19:45.873Z,3.37
2017-11-29T13:22:59.649Z,4.37
2017-11-29T13:26:04.897Z,3.23
2017-11-29T13:29:11.153Z,4.03
2017-11-29T13:32:16.438Z,3.60
2017-11-29T13:35:21.565Z,6.80
2017-11-29T13:38:26.748Z,4.20
2017-11-29T13:41:31.810Z,4.63
2017-11-29T13:44:43.329Z,2.87
2017-11-29T13:47:48.344Z,2.73
2017-11-29T13:50:55.656Z,4.13
2017-11-29T13:54:00.381Z,3.67
2017-11-29T13:57:05.225Z,8.10
2017-11-29T14:00:11.132Z,3.90
2017-11-29T14:03:16.838Z,6.17
2017-11-29T14:06:21.877Z,7.50
2017-11-29T14:09:27.401Z,3.70
2017-11-29T14:12:34.833Z,7.13
2017-11-29T14:15:41.216Z,9.90
2017-11-29T14:18:46.398Z,4.60
2017-11-29T14:21:51.946Z,5.67
2017-11-29T14:24:57.165Z,4.50
2017-11-29T14:28:01.901Z,4.57
2017-11-29T14:31:08.616Z,7.63
2017-11-29T14:34:13.773Z,7.03
2017-11-29T14:37:20.844Z,3.73
2017-11-29T14:40:26.243Z,6.00
2017-11-29T14:43:34.793Z,6.17
2017-11-29T14:46:44.955Z,6.27
2017-11-29T14:49:52.469Z,4.73
2017-11-29T14:52:57.096Z,6.57
2017-11-29T14:56:02.748Z,6.40
2017-11-29T14:59:08.309Z,6.00
2017-11-29T15:02:17.437Z,6.63
2017-11-29T15:08:46.497Z,5.50
2017-11-29T15:11:52.594Z,8.70
2017-11-29T15:14:59.050Z,5.70
2017-11-29T15:18:04.679Z,5.20
2017-11-29T15:21:10.752Z,4.53
2017-11-29T15:24:24.144Z,5.70
2017-11-29T15:27:29.665Z,9.70
2017-11-29T15:30:36.525Z,5.87
2017-11-29T15:33:41.830Z,13.60
2017-11-29T15:36:46.518Z,12.17
2017-11-29T15:39:51.934Z,9.30
2017-11-29T15:43:02.661Z,8.97
2017-11-29T15:46:07.493Z,8.40
2017-11-29T15:49:25.017Z,11.07
2017-11-29T15:52:30.218Z,6.93
2017-11-29T15:55:35.592Z,10.57
2017-11-29T15:58:41.585Z,7.83
2017-11-29T16:01:47.134Z,5.53
2017-11-29T16:04:53.465Z,11.70
2017-11-29T16:07:59.230Z,10.50
2017-11-29T16:11:05.241Z,14.33
2017-11-29T16:14:10.868Z,12.63
2017-11-29T16:17:15.793Z,12.17
2017-11-29T16:20:21.568Z,13.40
2017-11-29T16:23:27.371Z,12.53
2017-11-29T16:26:32.853Z,15.33
2017-11-29T16:29:37.998Z,20.60
2017-11-29T16:32:43.791Z,12.00
2017-11-29T16:35:50.843Z,19.07
2017-11-29T16:38:56.105Z,20.60
2017-11-29T16:42:01.678Z,19.70
2017-11-29T16:45:09.183Z,32.77
2017-11-29T16:48:14.325Z,22.53
2017-11-29T16:51:20.372Z,15.20
2017-11-29T16:54:25.285Z,13.53
2017-11-29T16:57:30.962Z,13.57
2017-11-29T17:00:36.882Z,21.80
2017-11-29T17:03:45.416Z,32.53
2017-11-29T17:06:51.872Z,21.30
2017-11-29T17:09:59.236Z,18.23
2017-11-29T17:13:06.719Z,10.77
2017-11-29T17:16:13.467Z,10.73
2017-11-29T17:19:19.396Z,12.77
2017-11-29T17:22:25.065Z,19.63
2017-11-29T17:25:30.376Z,15.93
2017-11-29T17:28:38.106Z,14.43
2017-11-29T17:31:50.456Z,11.10
2017-11-29T17:34:56.549Z,13.33
2017-11-29T17:38:01.581Z,14.80
2017-11-29T17:41:07.069Z,18.53
2017-11-29T17:44:16.620Z,16.17
2017-11-29T17:47:27.569Z,16.53
2017-11-29T17:50:42.162Z,19.73
2017-11-29T17:53:49.453Z,17.27
2017-11-29T17:57:07.065Z,12.10
2017-11-29T18:00:16.024Z,16.57
2017-11-29T18:03:33.166Z,25.77
2017-11-29T18:06:38.413Z,32.90
2017-11-29T18:09:53.398Z,25.10
2017-11-29T18:13:00.442Z,19.40
2017-11-29T18:16:05.484Z,17.63
2017-11-29T18:19:10.743Z,20.27
2017-11-29T18:22:17.406Z,19.07
2017-11-29T18:25:22.598Z,19.20
2017-11-29T18:28:29.284Z,28.50
2017-11-29T18:31:34.978Z,20.03
2017-11-29T18:34:41.165Z,22.30
2017-11-29T18:37:46.955Z,19.87
2017-11-29T18:40:52.101Z,16.03
2017-11-29T18:44:02.365Z,16.47
2017-11-29T18:47:09.470Z,20.60
2017-11-29T18:50:14.611Z,15.97
2017-11-29T18:53:24.008Z,18.90
2017-11-29T18:56:30.835Z,13.50
2017-11-29T18:59:38.155Z,19.43
2017-11-29T19:02:47.119Z,17.30
2017-11-29T19:05:55.336Z,17.63
2017-11-29T19:09:02.609Z,26.93
2017-11-29T19:12:08.528Z,32.63
2017-11-29T19:15:13.938Z,33.33
2017-11-29T19:18:18.905Z,34.33
2017-11-29T19:21:25.482Z,24.03
2017-11-29T19:24:37.410Z,20.60
2017-11-29T19:27:46.729Z,17.40
2017-11-29T19:30:57.906Z,16.63
2017-11-29T19:34:09.513Z,32.83
2017-11-29T19:37:15.173Z,49.87
2017-11-29T19:40:29.450Z,31.77
2017-11-29T19:43:34.986Z,27.00
2017-11-29T19:46:50.152Z,27.10
2017-11-29T19:49:56.830Z,32.93
2017-11-29T19:53:03.023Z,38.20
2017-11-29T19:56:09.346Z,22.13
2017-11-29T19:59:14.777Z,19.33
2017-11-29T20:02:23.678Z,17.77
2017-11-29T20:05:28.900Z,22.70
2017-11-29T20:08:34.649Z,20.60
2017-11-29T20:11:39.520Z,20.87
2017-11-29T20:14:44.951Z,22.63
2017-11-29T20:17:51.894Z,19.23
2017-11-29T20:20:58.234Z,19.43
2017-11-29T20:24:03.477Z,20.30
2017-11-29T20:27:08.749Z,18.57
2017-11-29T20:30:14.573Z,20.40
2017-11-29T20:33:20.170Z,21.10
2017-11-29T20:36:25.445Z,19.90
2017-11-29T20:39:32.187Z,22.07
2017-11-29T20:42:38.629Z,24.23
2017-11-29T20:45:44.311Z,21.03
2017-11-29T20:48:49.747Z,18.67
2017-11-29T20:51:56.269Z,18.50
2017-11-29T20:55:01.200Z,19.93
2017-11-29T20:58:06.082Z,19.83
2017-11-29T21:01:12.126Z,19.37
2017-11-29T21:04:21.088Z,20.60
2017-11-29T21:07:26.126Z,38.20
2017-11-29T21:10:34.458Z,37.77
2017-11-29T21:13:40.368Z,27.63
2017-11-29T21:16:45.970Z,29.80
2017-11-29T21:19:50.822Z,32.90
2017-11-29T21:22:57.925Z,30.40
2017-11-29T21:26:05.154Z,27.93
2017-11-29T21:29:11.735Z,27.67
2017-11-29T21:32:17.066Z,27.07
2017-11-29T21:35:22.842Z,29.10
2017-11-29T21:38:30.426Z,31.17
2017-11-29T21:41:35.635Z,21.50
2017-11-29T21:44:40.348Z,21.47
2017-11-29T21:47:46.772Z,21.10
2017-11-29T21:50:52.124Z,19.20
2017-11-29T21:53:57.455Z,19.57
2017-11-29T21:57:02.379Z,20.63
2017-11-29T22:00:07.485Z,19.00
2017-11-29T22:03:12.696Z,15.57
2017-11-29T22:06:17.545Z,13.13
2017-11-29T22:09:23.937Z,16.17
2017-11-29T22:12:30.377Z,16.33
2017-11-29T22:15:35.532Z,17.43
2017-11-29T22:18:41.668Z,18.30
2017-11-29T22:21:47.857Z,15.43
2017-11-29T22:24:52.773Z,16.83
2017-11-29T22:27:57.662Z,13.60
2017-11-29T22:31:02.444Z,17.07
2017-11-29T22:34:07.801Z,17.60
2017-11-29T22:37:13.685Z,18.30
2017-11-29T22:40:18.678Z,23.03
2017-11-29T22:43:24.018Z,12.20
2017-11-29T22:46:28.928Z,21.80
2017-11-29T22:49:35.374Z,20.93
2017-11-29T22:52:41.006Z,16.53
2017-11-29T22:55:46.351Z,18.93
2017-11-29T22:58:52.153Z,20.77
2017-11-29T23:01:57.512Z,24.47
2017-11-29T23:05:02.385Z,18.97
2017-11-29T23:08:07.302Z,24.47
2017-11-29T23:11:12.945Z,18.97
2017-11-29T23:14:18.741Z,21.00
2017-11-29T23:17:25.090Z,22.80
2017-11-29T23:20:30.805Z,24.40
2017-11-29T23:23:36.018Z,16.33
2017-11-29T23:26:41.373Z,18.17
2017-11-29T23:29:47.725Z,19.70
2017-11-29T23:32:53.124Z,18.67
2017-11-29T23:35:59.152Z,16.70
2017-11-29T23:39:04.358Z,18.40
2017-11-29T23:42:10.853Z,15.17
2017-11-29T23:45:16.094Z,20.87
2017-11-29T23:48:21.830Z,16.80
2017-11-29T23:51:27.419Z,18.93
2017-11-29T23:54:32.804Z,16.90
2017-11-29T23:57:38.133Z,15.57
